Time;durP1;ratioP1;P1;durP2;ratioP2;P2;SDS_P1;SDS_P2;PMS_P1;PMS_P2;Temp;Humidity;BMP_temperature;BMP_pressure;BME280_temperature;BME280_humidity;BME280_pressure;Samples;Min_cycle;Max_cycle;Signal;HPM_P1;HPM_P2
2021/12/19 00:01:02;;;;;;;31.58;14.23;;;3.00;99.90;;;;;;5028099;28;20025;-73
2021/12/19 00:08:56;;;;;;;26.45;13.93;;;2.90;99.90;;;;;;5028279;28;20522;-73
2021/12/19 00:11:23;;;;;;;28.48;12.55;;;2.90;99.90;;;;;;5009586;28;20033;-73
2021/12/19 00:13:50;;;;;;;26.75;13.98;;;2.80;99.90;;;;;;5027100;28;20021;-73
2021/12/19 00:16:17;;;;;;;30.83;14.60;;;2.70;99.90;;;;;;5027606;28;20025;-74
2021/12/19 00:18:44;;;;;;;31.70;13.05;;;2.70;99.90;;;;;;5027542;28;20022;-74
2021/12/19 00:21:11;;;;;;;24.60;13.60;;;2.70;99.90;;;;;;5027579;28;20033;-73
2021/12/19 00:23:38;;;;;;;26.67;13.52;;;2.70;99.90;;;;;;5027107;28;20087;-74
2021/12/19 00:26:04;;;;;;;30.00;14.45;;;2.60;99.90;;;;;;5027148;28;20041;-73
2021/12/19 00:28:29;;;;;;;27.20;12.73;;;2.60;99.90;;;;;;5027403;28;20029;-73
2021/12/19 00:30:55;;;;;;;25.05;13.00;;;2.50;99.90;;;;;;5027484;28;20024;-74
2021/12/19 00:33:21;;;;;;;23.95;12.52;;;2.40;99.90;;;;;;5028662;28;20407;-73
2021/12/19 00:35:47;;;;;;;25.88;12.60;;;2.60;99.90;;;;;;5027054;28;20155;-73
2021/12/19 00:38:13;;;;;;;24.10;12.52;;;2.60;99.90;;;;;;5026887;28;20112;-73
2021/12/19 00:40:39;;;;;;;24.75;12.52;;;2.60;99.90;;;;;;5009441;28;20136;-73
2021/12/19 00:43:09;;;;;;;24.60;12.30;;;2.60;99.90;;;;;;5027417;28;20069;-73
2021/12/19 00:45:37;;;;;;;23.85;11.95;;;2.60;99.90;;;;;;5027473;28;20087;-73
2021/12/19 00:48:05;;;;;;;29.02;13.20;;;2.60;99.90;;;;;;5028325;28;20033;-74
2021/12/19 00:50:33;;;;;;;27.73;13.48;;;2.60;99.90;;;;;;5026932;28;20025;-73
2021/12/19 00:52:58;;;;;;;25.35;13.27;;;2.60;99.90;;;;;;5026877;28;20029;-73
2021/12/19 00:55:27;;;;;;;31.13;13.65;;;2.60;99.90;;;;;;5027447;28;20082;-73
2021/12/19 00:57:53;;;;;;;25.98;12.25;;;2.60;99.90;;;;;;5030864;28;20248;-73
2021/12/19 01:00:24;;;;;;;21.92;12.50;;;2.50;99.90;;;;;;5032575;28;20095;-73
2021/12/19 01:02:52;;;;;;;23.57;12.47;;;2.50;99.90;;;;;;5030764;28;20021;-73
2021/12/19 01:05:18;;;;;;;27.30;12.95;;;2.50;99.90;;;;;;5030291;28;20049;-73
2021/12/19 01:07:44;;;;;;;23.05;12.32;;;2.50;99.90;;;;;;5030338;28;20034;-73
2021/12/19 01:10:10;;;;;;;24.95;12.20;;;2.50;99.90;;;;;;5012946;28;20048;-73
2021/12/19 01:12:38;;;;;;;23.27;12.05;;;2.40;99.90;;;;;;5030886;28;20507;-73
2021/12/19 01:15:09;;;;;;;22.23;13.38;;;2.40;99.90;;;;;;5031731;28;20108;-73
2021/12/19 01:17:35;;;;;;;;;;;2.40;99.90;;;;;;5030697;28;20047;-73
2021/12/19 01:20:07;;;;;;;19.15;10.27;;;2.40;99.90;;;;;;5030118;28;20371;-73
2021/12/19 01:22:32;;;;;;;;;;;2.40;99.90;;;;;;5013189;28;20040;-73
2021/12/19 01:24:58;;;;;;;23.42;11.38;;;2.40;99.90;;;;;;5030828;28;20389;-73
2021/12/19 01:27:23;;;;;;;21.73;10.63;;;2.30;99.90;;;;;;5032177;28;20437;-72
2021/12/19 01:29:49;;;;;;;22.70;11.18;;;2.30;99.90;;;;;;5030623;28;20084;-73
2021/12/19 01:32:15;;;;;;;20.25;10.88;;;2.40;99.90;;;;;;5030402;28;20033;-72
2021/12/19 01:34:40;;;;;;;22.63;11.27;;;2.30;99.90;;;;;;5012164;28;20438;-73
2021/12/19 01:37:06;;;;;;;18.73;10.05;;;2.30;99.90;;;;;;5029919;28;20068;-73
2021/12/19 01:39:32;;;;;;;21.05;11.98;;;2.30;99.90;;;;;;5030752;28;20017;-73
2021/12/19 01:41:58;;;;;;;24.05;11.68;;;2.20;99.90;;;;;;5031232;28;20491;-73
2021/12/19 01:44:25;;;;;;;20.33;11.20;;;2.10;99.90;;;;;;5030052;28;20022;-73
2021/12/19 01:46:51;;;;;;;22.85;10.93;;;2.10;99.90;;;;;;5029895;28;20099;-73
2021/12/19 01:49:19;;;;;;;20.90;10.45;;;2.20;99.90;;;;;;5029550;28;20018;-73
2021/12/19 01:51:46;;;;;;;21.15;10.55;;;2.20;99.90;;;;;;5012206;28;20116;-73
2021/12/19 01:54:12;;;;;;;20.88;10.95;;;2.10;99.90;;;;;;5031836;28;20017;-73
2021/12/19 01:56:39;;;;;;;21.20;10.57;;;2.10;99.90;;;;;;5029799;28;20022;-73
2021/12/19 01:59:07;;;;;;;24.25;11.30;;;2.10;99.90;;;;;;5030075;28;20022;-73
2021/12/19 02:01:54;;;;;;;21.85;11.00;;;2.00;99.90;;;;;;5029469;28;20017;-72
2021/12/19 02:04:26;;;;;;;20.20;10.15;;;2.00;99.90;;;;;;5029561;28;20022;-72
2021/12/19 02:06:51;;;;;;;18.83;10.15;;;2.10;99.90;;;;;;5029025;28;20033;-73
2021/12/19 02:09:17;;;;;;;21.92;10.70;;;2.10;99.90;;;;;;5030522;28;20013;-72
2021/12/19 02:11:43;;;;;;;17.33;9.30;;;2.00;99.90;;;;;;5029603;28;20057;-73
2021/12/19 02:14:10;;;;;;;20.92;9.52;;;2.00;99.90;;;;;;5029374;28;20064;-72
2021/12/19 02:16:39;;;;;;;18.88;10.40;;;2.00;99.90;;;;;;5029218;28;20348;-73
2021/12/19 02:19:06;;;;;;;18.40;9.88;;;2.00;99.90;;;;;;5029263;28;20025;-72
2021/12/19 02:21:32;;;;;;;22.92;11.55;;;1.90;99.90;;;;;;5030194;28;20079;-73
2021/12/19 02:24:01;;;;;;;21.15;10.40;;;1.90;99.90;;;;;;5030534;28;20026;-73
2021/12/19 02:26:27;;;;;;;18.77;9.93;;;1.80;99.90;;;;;;5029254;28;20026;-73
2021/12/19 02:28:53;;;;;;;19.45;10.13;;;1.90;99.90;;;;;;5029306;28;20671;-72
2021/12/19 02:31:20;;;;;;;18.80;9.32;;;1.90;99.90;;;;;;5029353;28;20032;-73
2021/12/19 02:34:01;;;;;;;18.77;10.13;;;1.80;99.90;;;;;;5029160;28;20017;-73
2021/12/19 02:36:45;;;;;;;17.77;9.73;;;1.90;99.90;;;;;;5030699;28;20133;-73
2021/12/19 02:50:15;;;;;;;23.60;9.73;;;1.90;99.90;;;;;;5029326;28;20137;-73
2021/12/19 02:52:40;;;;;;;;;;;1.80;99.90;;;;;;5028914;28;20045;-72
2021/12/19 02:55:07;;;;;;;19.02;10.27;;;1.80;99.90;;;;;;5029227;28;19913;-72
2021/12/19 02:57:34;;;;;;;17.98;10.00;;;1.70;99.90;;;;;;5029327;28;20096;-72
2021/12/19 03:00:00;;;;;;;22.08;10.77;;;1.80;99.90;;;;;;5029952;28;20124;-72
2021/12/19 03:02:25;;;;;;;18.75;10.18;;;1.80;99.90;;;;;;5028379;28;20546;-74
2021/12/19 03:04:56;;;;;;;18.45;9.98;;;1.90;99.90;;;;;;5028485;28;20490;-73
2021/12/19 03:07:24;;;;;;;18.77;9.25;;;1.90;99.90;;;;;;5028259;28;20029;-74
2021/12/19 03:18:00;;;;;;;20.48;10.35;;;1.90;99.90;;;;;;5028174;28;20079;-72
2021/12/19 03:20:27;;;;;;;19.08;9.75;;;1.80;99.90;;;;;;5010124;28;20033;-72
2021/12/19 03:22:54;;;;;;;16.05;8.70;;;1.70;99.90;;;;;;5028320;28;20036;-71
2021/12/19 03:25:19;;;;;;;17.27;10.05;;;1.80;99.90;;;;;;5028218;28;20033;-71
2021/12/19 03:27:45;;;;;;;16.65;8.93;;;1.90;99.90;;;;;;5010328;28;20411;-72
2021/12/19 03:30:11;;;;;;;17.15;8.63;;;1.80;99.90;;;;;;5029489;28;20380;-72
2021/12/19 03:32:37;;;;;;;15.48;9.05;;;1.80;99.90;;;;;;5027953;28;20044;-73
2021/12/19 03:35:04;;;;;;;15.52;8.52;;;1.70;99.90;;;;;;5027927;28;20499;-73
2021/12/19 03:37:31;;;;;;;16.42;8.63;;;1.70;99.90;;;;;;5027503;28;20040;-73
2021/12/19 03:40:07;;;;;;;14.77;8.20;;;1.80;99.90;;;;;;5012717;28;20080;-74
2021/12/19 03:42:34;;;;;;;14.75;7.70;;;1.70;99.90;;;;;;5028603;28;20021;-73
2021/12/19 03:45:00;;;;;;;13.60;8.40;;;1.70;99.90;;;;;;5027875;28;20040;-74
2021/12/19 03:47:26;;;;;;;14.48;8.40;;;1.80;99.90;;;;;;5009705;28;20511;-72
2021/12/19 03:49:52;;;;;;;11.75;7.57;;;1.70;99.90;;;;;;5027712;28;20063;-73
2021/12/19 03:52:17;;;;;;;12.63;7.25;;;1.60;99.90;;;;;;5027735;28;20022;-74
2021/12/19 03:54:43;;;;;;;14.38;8.10;;;1.60;99.90;;;;;;5027925;28;20491;-73
2021/12/19 03:57:09;;;;;;;11.73;7.13;;;1.60;99.90;;;;;;5029154;28;20503;-73
2021/12/19 03:59:35;;;;;;;13.18;7.05;;;1.70;99.90;;;;;;5009211;28;20059;-73
2021/12/19 04:02:01;;;;;;;11.68;6.68;;;1.60;99.90;;;;;;5027538;28;20060;-72
2021/12/19 04:04:26;;;;;;;11.07;6.50;;;1.60;99.90;;;;;;5027574;28;20025;-74
2021/12/19 04:06:54;;;;;;;13.65;7.38;;;1.60;99.90;;;;;;5009590;28;20617;-73
2021/12/19 04:09:20;;;;;;;12.43;7.38;;;1.60;99.90;;;;;;5029197;28;20026;-73
2021/12/19 04:11:45;;;;;;;10.85;6.32;;;1.70;99.90;;;;;;5006534;28;20033;-73
2021/12/19 04:14:11;;;;;;;14.32;7.50;;;1.50;99.90;;;;;;5021727;28;20526;-72
2021/12/19 04:16:42;;;;;;;12.93;7.18;;;1.60;99.90;;;;;;5028015;28;20483;-72
2021/12/19 04:19:09;;;;;;;12.15;6.68;;;1.60;99.90;;;;;;5027706;28;20025;-72
2021/12/19 04:21:34;;;;;;;12.77;6.90;;;1.30;99.90;;;;;;5010144;28;20029;-73
2021/12/19 04:24:00;;;;;;;14.07;7.55;;;1.20;99.90;;;;;;5028950;28;20034;-73
2021/12/19 04:26:25;;;;;;;10.98;6.75;;;1.30;99.90;;;;;;5027833;28;20510;-73
2021/12/19 04:28:51;;;;;;;12.45;7.13;;;1.30;99.90;;;;;;5027486;28;20565;-72
2021/12/19 04:31:17;;;;;;;12.73;7.10;;;1.30;99.90;;;;;;5010185;28;20549;-72
2021/12/19 04:33:43;;;;;;;12.93;7.22;;;1.10;99.90;;;;;;5031807;28;20029;-72
2021/12/19 04:36:11;;;;;;;12.93;7.40;;;1.30;99.90;;;;;;5033317;28;20029;-73
2021/12/19 04:41:39;;;;;;;16.85;9.05;;;1.50;99.90;;;;;;5031371;28;20051;-73
2021/12/19 05:00:13;;;;;;;14.35;7.95;;;1.40;99.90;;;;;;4990237;28;20038;-72
2021/12/19 05:16:09;;;;;;;16.48;8.85;;;1.30;99.90;;;;;;4986807;28;20133;-71
2021/12/19 05:18:38;;;;;;;18.77;9.85;;;1.30;99.90;;;;;;4989199;28;20516;-72
2021/12/19 05:21:14;;;;;;;21.42;10.05;;;1.30;99.90;;;;;;4990366;28;20048;-74
2021/12/19 05:26:12;;;;;;;18.55;9.80;;;1.20;99.90;;;;;;4988323;28;20041;-72
2021/12/19 05:28:38;;;;;;;19.85;10.60;;;1.20;99.90;;;;;;4988419;28;20034;-72
2021/12/19 05:31:03;;;;;;;18.75;10.40;;;1.20;99.90;;;;;;5003264;28;20060;-72
2021/12/19 05:33:29;;;;;;;19.42;10.15;;;1.20;99.90;;;;;;5031705;28;20021;-71
2021/12/19 05:46:27;;;;;;;19.92;9.10;;;1.00;99.90;;;;;;5030261;28;20068;-72
2021/12/19 05:48:53;;;;;;;21.13;10.05;;;1.00;99.90;;;;;;5012691;28;20025;-72
2021/12/19 05:51:19;;;;;;;17.67;9.63;;;1.00;99.90;;;;;;5031390;28;20021;-72
2021/12/19 05:53:45;;;;;;;16.90;8.52;;;1.00;99.90;;;;;;5030370;28;20099;-72
2021/12/19 05:56:11;;;;;;;18.30;9.45;;;1.00;99.90;;;;;;5030126;28;20030;-71
2021/12/19 05:58:37;;;;;;;16.52;9.10;;;1.00;99.90;;;;;;5029929;28;20449;-72
2021/12/19 06:01:02;;;;;;;18.58;8.98;;;1.00;99.90;;;;;;5030175;28;25470;-71
2021/12/19 06:03:28;;;;;;;19.45;9.15;;;1.00;99.90;;;;;;5031009;28;20017;-71
2021/12/19 06:05:54;;;;;;;18.55;9.05;;;0.90;99.90;;;;;;5030868;28;20029;-72
2021/12/19 06:08:19;;;;;;;18.35;8.35;;;0.90;99.90;;;;;;5011821;28;20063;-72
2021/12/19 06:10:45;;;;;;;17.13;9.05;;;0.90;99.90;;;;;;5029706;28;20038;-71
2021/12/19 06:13:10;;;;;;;16.58;8.65;;;0.90;99.90;;;;;;5030113;28;20009;-71
2021/12/19 06:15:36;;;;;;;13.80;8.02;;;0.80;99.90;;;;;;5030609;28;20104;-72
2021/12/19 06:18:03;;;;;;;14.90;7.20;;;0.90;99.90;;;;;;5031194;28;20197;-71
2021/12/19 06:20:31;;;;;;;15.75;8.18;;;0.90;99.90;;;;;;5030041;28;20030;-71
2021/12/19 06:23:00;;;;;;;14.93;8.05;;;0.80;99.90;;;;;;5029840;28;20029;-71
2021/12/19 06:25:26;;;;;;;16.27;8.43;;;0.80;99.90;;;;;;5029412;28;20022;-71
2021/12/19 06:27:53;;;;;;;16.00;8.20;;;0.80;99.90;;;;;;5029395;28;20033;-71
2021/12/19 06:30:19;;;;;;;17.05;8.45;;;0.80;99.90;;;;;;5030883;28;20029;-71
2021/12/19 06:32:45;;;;;;;17.02;8.15;;;0.80;99.90;;;;;;5029211;28;20026;-71
2021/12/19 06:35:18;;;;;;;15.05;8.55;;;0.80;99.90;;;;;;5029050;28;20117;-71
2021/12/19 06:37:45;;;;;;;17.38;9.27;;;0.80;99.90;;;;;;5029072;28;20087;-71
2021/12/19 06:40:15;;;;;;;19.17;8.85;;;0.80;99.90;;;;;;5011518;28;20040;-71
2021/12/19 06:42:41;;;;;;;18.98;9.32;;;0.90;99.90;;;;;;5029556;28;20112;-72
2021/12/19 06:45:07;;;;;;;19.38;9.73;;;0.80;99.90;;;;;;5030285;28;20100;-71
2021/12/19 06:47:33;;;;;;;19.65;9.00;;;0.70;99.90;;;;;;5028682;28;20042;-71
2021/12/19 06:49:59;;;;;;;19.45;9.60;;;0.70;99.90;;;;;;5028953;28;20033;-71
2021/12/19 06:52:24;;;;;;;19.63;9.82;;;0.70;99.90;;;;;;5029122;28;20507;-71
2021/12/19 06:54:50;;;;;;;20.58;9.73;;;0.60;99.90;;;;;;5028540;28;20059;-71
2021/12/19 06:57:16;;;;;;;19.95;8.77;;;0.50;99.90;;;;;;5030321;28;20037;-71
2021/12/19 06:59:42;;;;;;;16.38;8.65;;;0.50;99.90;;;;;;5029160;28;20049;-71
2021/12/19 07:02:13;;;;;;;18.40;9.35;;;0.70;99.90;;;;;;5029289;28;20076;-71
2021/12/19 07:04:39;;;;;;;;;;;0.60;99.90;;;;;;5029276;28;20060;-71
2021/12/19 07:07:05;;;;;;;16.02;8.02;;;0.70;99.90;;;;;;5027102;28;19916;-71
2021/12/19 07:09:30;;;;;;;17.05;8.90;;;0.50;99.90;;;;;;5029793;28;20028;-71
2021/12/19 07:11:56;;;;;;;15.50;8.07;;;0.50;99.90;;;;;;5028885;28;20029;-71
2021/12/19 07:14:22;;;;;;;14.23;7.32;;;0.30;99.90;;;;;;5028706;28;20041;-71
2021/12/19 07:16:47;;;;;;;14.32;7.35;;;0.40;99.90;;;;;;5028453;28;20026;-71
2021/12/19 07:19:13;;;;;;;14.13;6.82;;;0.30;99.90;;;;;;5028778;28;20479;-70
2021/12/19 07:21:38;;;;;;;11.23;6.63;;;0.30;99.90;;;;;;5028915;28;20028;-71
2021/12/19 07:24:04;;;;;;;11.40;6.30;;;0.40;99.90;;;;;;5029281;28;20028;-71
2021/12/19 07:26:30;;;;;;;16.13;8.57;;;0.30;99.90;;;;;;5027812;28;20508;-70
2021/12/19 07:28:57;;;;;;;16.05;7.82;;;0.40;99.90;;;;;;5028290;28;20447;-70
2021/12/19 07:31:23;;;;;;;14.90;7.43;;;0.40;99.90;;;;;;5028613;28;20014;-70
2021/12/19 07:33:49;;;;;;;18.88;9.00;;;0.10;99.90;;;;;;5028120;28;20483;-71
2021/12/19 07:36:18;;;;;;;15.45;7.78;;;0.30;99.90;;;;;;5008469;28;20041;-71
2021/12/19 07:39:07;;;;;;;13.32;7.47;;;0.50;99.90;;;;;;5026773;28;20120;-70
2021/12/19 07:41:33;;;;;;;15.52;8.30;;;0.40;99.90;;;;;;5028510;28;20021;-71
2021/12/19 07:43:59;;;;;;;15.68;7.68;;;0.10;99.90;;;;;;5028360;28;20479;-70
2021/12/19 07:46:24;;;;;;;16.83;8.05;;;0.10;99.90;;;;;;5028316;28;20040;-70
2021/12/19 07:48:50;;;;;;;14.60;7.93;;;0.10;99.90;;;;;;5028648;28;20041;-70
2021/12/19 07:51:16;;;;;;;16.42;8.27;;;0.20;99.90;;;;;;5029632;28;20030;-70
2021/12/19 07:53:42;;;;;;;12.63;7.68;;;0.30;99.90;;;;;;5027832;28;20025;-70
2021/12/19 07:56:07;;;;;;;12.73;7.50;;;0.40;99.90;;;;;;5027960;28;20104;-71
2021/12/19 07:58:33;;;;;;;15.45;8.45;;;0.40;99.90;;;;;;5009882;28;20510;-70
2021/12/19 08:00:59;;;;;;;14.30;7.72;;;0.50;99.90;;;;;;5028305;28;20057;-70
2021/12/19 08:03:24;;;;;;;13.52;7.22;;;0.50;99.90;;;;;;5029607;28;20029;-70
2021/12/19 08:05:50;;;;;;;14.35;7.63;;;0.50;99.90;;;;;;5026723;28;20484;-70
2021/12/19 08:08:21;;;;;;;12.98;7.68;;;0.40;99.90;;;;;;5027756;28;20029;-70
2021/12/19 08:13:12;;;;;;;16.23;8.27;;;0.50;99.90;;;;;;5028126;28;20049;-70
2021/12/19 08:15:38;;;;;;;16.13;8.85;;;0.70;99.90;;;;;;5028354;28;20108;-69
2021/12/19 08:18:05;;;;;;;13.85;7.93;;;0.80;99.90;;;;;;5023617;28;20502;-69
2021/12/19 08:20:31;;;;;;;15.50;8.40;;;0.80;99.90;;;;;;5025361;28;20026;-70
2021/12/19 08:22:57;;;;;;;14.90;7.68;;;0.90;99.90;;;;;;5027239;28;20032;-69
2021/12/19 08:25:24;;;;;;;15.05;8.25;;;1.00;99.90;;;;;;5027179;28;20034;-69
2021/12/19 08:27:51;;;;;;;18.27;8.57;;;1.10;99.90;;;;;;5027235;28;20033;-69
2021/12/19 08:30:17;;;;;;;13.85;7.53;;;1.00;99.90;;;;;;5028634;28;20105;-69
2021/12/19 08:32:43;;;;;;;16.35;8.25;;;1.10;99.90;;;;;;5026653;28;20021;-69
2021/12/19 08:35:11;;;;;;;14.90;7.95;;;1.20;99.90;;;;;;5026646;28;20553;-69
2021/12/19 08:37:37;;;;;;;13.75;7.68;;;1.30;99.90;;;;;;5026987;28;20124;-71
2021/12/19 08:40:04;;;;;;;15.95;7.97;;;1.30;99.90;;;;;;5027242;28;20025;-71
2021/12/19 08:42:32;;;;;;;15.50;8.32;;;1.40;99.90;;;;;;5027902;28;20071;-72
2021/12/19 08:44:58;;;;;;;12.73;7.43;;;1.60;99.90;;;;;;5028109;28;20507;-71
2021/12/19 08:47:24;;;;;;;17.75;9.07;;;1.70;99.90;;;;;;5027031;28;20053;-71
2021/12/19 08:49:50;;;;;;;17.30;9.32;;;1.90;99.90;;;;;;5026729;28;20394;-71
2021/12/19 08:52:15;;;;;;;19.17;9.95;;;2.00;99.90;;;;;;5026860;28;20021;-72
2021/12/19 08:54:41;;;;;;;18.40;10.25;;;2.40;99.90;;;;;;5027041;28;20021;-71
2021/12/19 08:57:07;;;;;;;18.60;9.90;;;2.50;99.90;;;;;;5028063;28;20018;-71
2021/12/19 08:59:33;;;;;;;20.75;10.13;;;2.60;99.90;;;;;;5026914;28;20506;-71
2021/12/19 09:02:01;;;;;;;18.40;10.18;;;3.90;99.90;;;;;;5026687;28;20442;-71
2021/12/19 09:04:27;;;;;;;20.13;10.68;;;5.20;99.90;;;;;;5026441;28;20026;-71
2021/12/19 09:06:56;;;;;;;21.45;11.00;;;5.30;99.90;;;;;;5026090;28;20490;-72
2021/12/19 09:09:22;;;;;;;17.73;10.98;;;7.20;99.90;;;;;;5028206;28;20014;-71
2021/12/19 09:11:48;;;;;;;21.15;11.35;;;8.80;99.60;;;;;;5005222;28;20503;-72
2021/12/19 09:14:14;;;;;;;20.67;11.55;;;9.10;97.40;;;;;;5020754;28;20035;-72
2021/12/19 09:16:39;;;;;;;21.77;11.30;;;7.10;99.90;;;;;;5026789;28;20100;-72
2021/12/19 09:19:05;;;;;;;18.63;10.40;;;5.30;99.90;;;;;;5030294;28;20255;-72
2021/12/19 09:21:30;;;;;;;16.58;10.75;;;4.60;99.90;;;;;;5031049;28;20475;-72
2021/12/19 09:23:56;;;;;;;18.67;10.65;;;4.30;99.90;;;;;;5030600;28;20108;-72
2021/12/19 09:26:22;;;;;;;16.88;9.65;;;4.20;99.90;;;;;;5030426;28;20428;-72
2021/12/19 09:28:47;;;;;;;14.68;9.63;;;3.90;99.90;;;;;;5030166;28;20457;-72
2021/12/19 09:31:13;;;;;;;15.88;9.60;;;3.90;99.90;;;;;;5012521;28;20026;-71
2021/12/19 09:33:39;;;;;;;16.65;10.45;;;4.00;99.90;;;;;;5030625;28;20022;-71
2021/12/19 09:36:05;;;;;;;15.98;10.32;;;4.00;99.90;;;;;;5031182;28;20514;-71
2021/12/19 09:38:31;;;;;;;17.92;10.45;;;4.00;99.90;;;;;;5011804;28;20522;-71
2021/12/19 09:41:01;;;;;;;18.00;11.40;;;4.00;99.90;;;;;;5029936;28;20072;-72
2021/12/19 09:43:42;;;;;;;20.70;11.68;;;4.10;99.90;;;;;;5029663;28;20108;-71
2021/12/19 09:46:23;;;;;;;21.38;11.43;;;4.30;99.90;;;;;;5029690;28;20049;-72
2021/12/19 09:48:49;;;;;;;24.45;11.70;;;4.50;99.90;;;;;;5029771;28;20579;-72
2021/12/19 09:51:17;;;;;;;18.90;10.98;;;4.50;99.90;;;;;;5031360;28;20057;-71
2021/12/19 09:53:43;;;;;;;21.45;11.55;;;4.60;99.90;;;;;;5029983;28;20044;-71
2021/12/19 09:56:10;;;;;;;19.58;11.25;;;4.60;99.90;;;;;;5008848;28;20034;-71
2021/12/19 09:58:36;;;;;;;16.55;9.93;;;4.60;99.90;;;;;;5019417;28;20245;-71
2021/12/19 10:01:06;;;;;;;18.85;10.70;;;4.50;99.90;;;;;;5030205;28;20162;-71
2021/12/19 10:03:32;;;;;;;17.75;10.82;;;4.50;99.90;;;;;;5030459;28;20087;-71
2021/12/19 10:06:19;;;;;;;18.98;10.43;;;4.60;99.90;;;;;;5030932;28;20039;-71
2021/12/19 10:08:49;;;;;;;17.98;9.63;;;4.70;99.90;;;;;;5029290;28;20031;-71
2021/12/19 10:11:42;;;;;;;18.38;10.00;;;4.80;99.90;;;;;;5029847;28;20109;-71
2021/12/19 10:14:41;;;;;;;15.18;9.23;;;4.90;99.90;;;;;;5008782;28;20030;-71
2021/12/19 10:17:16;;;;;;;16.13;8.60;;;5.10;99.90;;;;;;5022857;28;20021;-73
2021/12/19 10:19:51;;;;;;;17.50;9.88;;;5.10;99.90;;;;;;5029624;28;20025;-71
2021/12/19 10:22:27;;;;;;;16.42;9.23;;;5.20;99.90;;;;;;5030042;28;20025;-71
2021/12/19 10:24:54;;;;;;;14.23;8.55;;;5.20;99.90;;;;;;5030012;28;20026;-71
2021/12/19 10:27:38;;;;;;;15.63;8.32;;;5.30;99.90;;;;;;5030707;28;20033;-71
2021/12/19 10:30:26;;;;;;;15.45;8.80;;;5.20;99.90;;;;;;5029811;28;20022;-71
2021/12/19 10:33:01;;;;;;;18.55;8.43;;;5.40;99.90;;;;;;5011265;28;20033;-71
2021/12/19 10:35:34;;;;;;;13.52;8.73;;;5.50;99.90;;;;;;5029041;28;20025;-71
2021/12/19 10:38:02;;;;;;;15.13;8.48;;;5.80;99.90;;;;;;5029212;28;20022;-72
2021/12/19 10:40:28;;;;;;;17.00;9.95;;;5.70;99.90;;;;;;5029830;28;20105;-72
2021/12/19 10:43:01;;;;;;;15.90;9.63;;;5.90;99.90;;;;;;5029851;28;20079;-71
2021/12/19 10:45:49;;;;;;;16.52;10.02;;;6.00;99.90;;;;;;5012533;28;20029;-71
2021/12/19 10:48:37;;;;;;;15.10;9.32;;;6.10;99.90;;;;;;5029393;28;20033;-71
2021/12/19 10:51:12;;;;;;;13.68;8.32;;;6.10;99.90;;;;;;5009585;28;20030;-71
2021/12/19 10:53:44;;;;;;;15.15;9.45;;;6.30;99.90;;;;;;5026735;28;20022;-71
2021/12/19 10:56:17;;;;;;;13.50;9.07;;;6.30;99.90;;;;;;5008006;28;20022;-72
2021/12/19 10:59:20;;;;;;;16.42;10.02;;;6.40;99.90;;;;;;5019377;28;20033;-71
2021/12/19 11:01:52;;;;;;;11.65;8.38;;;6.30;99.90;;;;;;5010831;28;20124;-73
2021/12/19 11:04:22;;;;;;;16.00;8.93;;;6.30;99.90;;;;;;5029236;28;20036;-73
2021/12/19 11:06:52;;;;;;;13.55;8.63;;;6.40;99.90;;;;;;5028760;28;20026;-73
2021/12/19 11:09:23;;;;;;;15.93;8.75;;;6.30;99.90;;;;;;5030021;28;20029;-73
2021/12/19 11:12:08;;;;;;;;;;;6.30;99.90;;;;;;5008036;28;20022;-73
2021/12/19 11:14:43;;;;;;;16.90;10.02;;;6.70;99.90;;;;;;5025305;28;19916;-73
2021/12/19 11:17:26;;;;;;;14.65;8.90;;;6.60;99.90;;;;;;5027941;28;20028;-73
2021/12/19 11:19:54;;;;;;;16.73;9.60;;;6.70;99.90;;;;;;5017341;28;20518;-73
2021/12/19 11:22:23;;;;;;;17.27;10.70;;;7.00;99.90;;;;;;5027885;28;20275;-73
2021/12/19 11:24:58;;;;;;;20.42;11.30;;;7.50;99.90;;;;;;5009568;28;20053;-73
2021/12/19 11:27:25;;;;;;;16.90;9.98;;;7.70;99.90;;;;;;5029608;28;20026;-73
2021/12/19 11:29:52;;;;;;;20.98;11.65;;;7.60;99.90;;;;;;5006928;28;20022;-74
2021/12/19 11:32:23;;;;;;;19.02;10.55;;;7.60;99.90;;;;;;5023519;28;20021;-73
2021/12/19 11:34:49;;;;;;;;;;;7.50;99.90;;;;;;5028766;28;20108;-72
2021/12/19 11:37:21;;;;;;;18.10;10.88;;;7.30;99.90;;;;;;5026764;28;20072;-71
2021/12/19 11:39:51;;;;;;;15.68;9.57;;;7.60;99.90;;;;;;5009334;28;20561;-73
2021/12/19 11:42:38;;;;;;;16.30;10.20;;;7.90;99.90;;;;;;5008780;28;20459;-73
2021/12/19 11:45:29;;;;;;;19.80;9.43;;;8.10;99.90;;;;;;5028335;28;20037;-73
2021/12/19 11:48:10;;;;;;;16.42;8.98;;;8.00;99.90;;;;;;5007468;28;20095;-73
2021/12/19 11:50:49;;;;;;;16.35;9.90;;;7.80;99.90;;;;;;5025340;28;20098;-73
2021/12/19 11:53:14;;;;;;;15.55;9.48;;;7.90;99.90;;;;;;5028021;28;20021;-74
2021/12/19 11:55:46;;;;;;;14.35;9.02;;;8.20;99.90;;;;;;5028233;28;20028;-74
2021/12/19 11:58:12;;;;;;;14.40;9.25;;;8.40;99.90;;;;;;5028043;28;20026;-74
2021/12/19 12:00:40;;;;;;;14.70;10.05;;;8.50;99.90;;;;;;5028578;28;20427;-74
2021/12/19 12:03:11;;;;;;;13.27;9.20;;;8.70;99.90;;;;;;5029362;28;20131;-74
2021/12/19 12:05:57;;;;;;;13.25;9.30;;;9.00;99.90;;;;;;5027877;28;20475;-74
2021/12/19 12:08:25;;;;;;;14.60;9.00;;;8.70;99.90;;;;;;5005891;28;20061;-74
2021/12/19 12:10:59;;;;;;;16.63;8.80;;;8.70;99.90;;;;;;5009534;28;20097;-74
2021/12/19 12:13:35;;;;;;;15.65;9.35;;;9.20;99.90;;;;;;5027919;28;20163;-74
2021/12/19 12:16:18;;;;;;;16.08;8.98;;;9.20;99.90;;;;;;5028206;28;20021;-74
2021/12/19 12:18:44;;;;;;;15.88;9.20;;;9.40;99.90;;;;;;5028243;28;20033;-74
2021/12/19 12:21:19;;;;;;;14.05;8.32;;;9.60;99.90;;;;;;5029030;28;20053;-74
2021/12/19 12:23:53;;;;;;;15.75;8.93;;;9.60;99.90;;;;;;5028243;28;20175;-74
2021/12/19 12:26:28;;;;;;;12.10;8.45;;;9.80;99.90;;;;;;5027890;28;20044;-75
2021/12/19 12:28:54;;;;;;;13.13;8.50;;;9.80;99.90;;;;;;5027736;28;20176;-75
2021/12/19 12:31:20;;;;;;;11.00;7.47;;;9.70;99.90;;;;;;5027548;28;20013;-74
2021/12/19 12:33:46;;;;;;;15.82;7.97;;;9.40;99.90;;;;;;5027684;28;20036;-74
2021/12/19 12:36:12;;;;;;;12.00;7.75;;;9.40;99.90;;;;;;5029157;28;20030;-74
2021/12/19 12:38:38;;;;;;;15.70;7.95;;;9.60;99.90;;;;;;5009502;28;20025;-74
2021/12/19 12:41:10;;;;;;;14.18;8.45;;;9.60;99.90;;;;;;5027718;28;20067;-74
2021/12/19 12:43:39;;;;;;;13.13;7.95;;;10.00;99.90;;;;;;5028146;28;20026;-75
2021/12/19 12:46:08;;;;;;;13.38;7.57;;;10.10;99.90;;;;;;5027548;28;20199;-75
2021/12/19 12:48:38;;;;;;;13.55;7.65;;;10.00;99.90;;;;;;5010627;28;20033;-74
2021/12/19 12:51:11;;;;;;;12.43;7.75;;;10.00;99.90;;;;;;5011225;28;20076;-74
2021/12/19 12:53:45;;;;;;;11.52;7.63;;;10.10;99.90;;;;;;5030992;28;20029;-75
2021/12/19 12:56:15;;;;;;;12.30;7.93;;;10.20;99.90;;;;;;5031096;28;20022;-75
2021/12/19 12:58:54;;;;;;;13.17;7.17;;;9.80;99.90;;;;;;5031353;28;20052;-75
2021/12/19 13:01:20;;;;;;;11.75;7.25;;;9.90;99.90;;;;;;5031714;28;20029;-75
2021/12/19 13:03:55;;;;;;;10.05;6.15;;;9.50;99.90;;;;;;5031311;28;20029;-74
2021/12/19 13:06:49;;;;;;;10.00;5.80;;;9.40;99.90;;;;;;5011780;28;20026;-75
2021/12/19 13:09:28;;;;;;;10.15;5.97;;;9.40;99.90;;;;;;5030836;28;20293;-74
2021/12/19 13:12:06;;;;;;;8.77;5.68;;;9.90;99.90;;;;;;5030703;28;20112;-74
2021/12/19 13:14:38;;;;;;;10.55;5.93;;;10.10;99.90;;;;;;5009690;28;20032;-75
2021/12/19 13:17:13;;;;;;;9.18;6.10;;;9.70;99.90;;;;;;5006409;28;20026;-75
2021/12/19 13:20:08;;;;;;;8.77;5.75;;;9.80;99.90;;;;;;5031103;28;20017;-75
2021/12/19 13:22:40;;;;;;;8.77;5.78;;;9.80;99.90;;;;;;5025082;28;20048;-75
2021/12/19 13:25:09;;;;;;;;;;;10.10;99.90;;;;;;5031351;28;20033;-75
2021/12/19 13:27:42;;;;;;;8.95;5.95;;;10.40;99.90;;;;;;5030223;28;19996;-75
2021/12/19 13:30:14;;;;;;;9.20;6.32;;;10.10;99.90;;;;;;5031797;28;20034;-75
2021/12/19 13:32:46;;;;;;;10.70;7.18;;;10.50;99.90;;;;;;5030667;28;20028;-75
2021/12/19 13:35:17;;;;;;;7.75;5.55;;;10.30;99.90;;;;;;5009419;28;20117;-75
2021/12/19 13:38:01;;;;;;;9.45;6.18;;;10.40;99.90;;;;;;5003131;28;20078;-75
2021/12/19 13:40:34;;;;;;;9.88;6.32;;;10.20;99.90;;;;;;5012867;28;20577;-75
2021/12/19 13:43:01;;;;;;;7.85;5.40;;;10.00;99.90;;;;;;5028167;28;20491;-75
2021/12/19 13:45:30;;;;;;;8.27;5.50;;;9.80;99.90;;;;;;5032480;28;20483;-75
2021/12/19 13:47:59;;;;;;;7.55;5.25;;;9.90;99.90;;;;;;5030951;28;20076;-75
2021/12/19 13:50:26;;;;;;;8.88;4.88;;;10.10;99.90;;;;;;5030286;28;20048;-75
2021/12/19 13:52:52;;;;;;;6.30;4.55;;;10.20;99.90;;;;;;5030352;28;20029;-75
2021/12/19 13:55:18;;;;;;;7.50;4.80;;;10.20;99.90;;;;;;5030148;28;20059;-76
2021/12/19 13:57:45;;;;;;;6.35;4.45;;;10.10;99.90;;;;;;5030847;28;20047;-75
2021/12/19 14:00:30;;;;;;;7.57;4.55;;;10.20;99.90;;;;;;5029774;28;20061;-76
2021/12/19 14:02:56;;;;;;;7.90;5.25;;;10.60;99.90;;;;;;5030439;28;20029;-75
2021/12/19 14:05:43;;;;;;;9.93;5.25;;;10.30;99.90;;;;;;5030036;28;20029;-75
2021/12/19 14:08:19;;;;;;;7.95;5.28;;;10.40;99.90;;;;;;5029278;28;20029;-75